Time;durP1;ratioP1;P1;durP2;ratioP2;P2;SDS_P1;SDS_P2;PMS_P1;PMS_P2;Temp;Humidity;BMP_temperature;BMP_pressure;BME280_temperature;BME280_humidity;BME280_pressure;Samples;Min_cycle;Max_cycle;Signal;HPM_P1;HPM_P2
2023/04/19 00:01:43;;;;;;;15.70;14.05;;;;;;;;;;5087508;28;20028;-65
2023/04/19 00:04:08;;;;;;;15.13;13.40;;;;;;;;;;5086920;28;20547;-65
2023/04/19 00:06:34;;;;;;;17.38;13.02;;;;;;;;;;5084537;28;20085;-65
2023/04/19 00:08:59;;;;;;;13.75;12.25;;;;;;;;;;5090797;28;20382;-66
2023/04/19 00:11:24;;;;;;;19.65;13.48;;;;;;;;;;5087643;28;20055;-66
2023/04/19 00:13:50;;;;;;;14.45;12.23;;;;;;;;;;5083159;28;20437;-65
2023/04/19 00:16:15;;;;;;;16.23;13.15;;;;;;;;;;5083926;28;20074;-66
2023/04/19 00:18:41;;;;;;;15.35;12.35;;;;;;;;;;5085458;28;20035;-65
2023/04/19 00:21:06;;;;;;;14.77;13.15;;;;;;;;;;5083799;28;20576;-65
2023/04/19 00:23:32;;;;;;;13.38;11.30;;;;;;;;;;5092528;28;20028;-66
2023/04/19 00:25:57;;;;;;;16.88;13.65;;;;;;;;;;5091082;28;20078;-65
2023/04/19 00:28:23;;;;;;;16.02;13.40;;;;;;;;;;5090069;28;20032;-66
2023/04/19 00:30:48;;;;;;;16.00;11.90;;;;;;;;;;5090750;28;20115;-65
2023/04/19 00:33:14;;;;;;;15.35;11.63;;;;;;;;;;5085606;28;20116;-66
2023/04/19 00:35:40;;;;;;;17.27;12.38;;;;;;;;;;5083414;28;20031;-66
2023/04/19 00:38:06;;;;;;;17.48;12.20;;;;;;;;;;5087800;28;20039;-66
2023/04/19 00:40:31;;;;;;;15.82;12.63;;;;;;;;;;5087557;28;20020;-65
2023/04/19 00:42:56;;;;;;;16.48;12.02;;;;;;;;;;5081472;28;20498;-65
2023/04/19 00:45:21;;;;;;;14.13;12.65;;;;;;;;;;5090249;28;20048;-66
2023/04/19 00:47:47;;;;;;;16.67;11.57;;;;;;;;;;5087178;28;20051;-65
2023/04/19 00:50:12;;;;;;;12.77;11.13;;;;;;;;;;5087917;28;20032;-66
2023/04/19 00:52:38;;;;;;;18.30;12.52;;;;;;;;;;5087294;28;20149;-66
2023/04/19 00:55:04;;;;;;;13.18;11.80;;;;;;;;;;5085827;28;20039;-66
2023/04/19 00:57:30;;;;;;;14.07;11.65;;;;;;;;;;5078503;28;20036;-65
2023/04/19 00:59:55;;;;;;;11.50;10.20;;;;;;;;;;5086412;28;20032;-65
2023/04/19 01:02:21;;;;;;;15.63;12.30;;;;;;;;;;5085721;28;20028;-65
2023/04/19 01:04:46;;;;;;;13.60;11.60;;;;;;;;;;5084624;28;20038;-65
2023/04/19 01:07:12;;;;;;;14.55;12.15;;;;;;;;;;5083227;28;20502;-65
2023/04/19 01:09:40;;;;;;;17.25;11.98;;;;;;;;;;5085821;28;20024;-66
2023/04/19 01:12:06;;;;;;;14.30;11.68;;;;;;;;;;5089654;28;20040;-66
2023/04/19 01:14:31;;;;;;;22.83;12.27;;;;;;;;;;5085251;28;20020;-65
2023/04/19 01:16:56;;;;;;;14.25;11.40;;;;;;;;;;5085896;28;20057;-65
2023/04/19 01:19:22;;;;;;;16.80;11.27;;;;;;;;;;5071230;28;20542;-65
2023/04/19 01:21:47;;;;;;;18.95;12.02;;;;;;;;;;5085070;28;20024;-65
2023/04/19 01:24:12;;;;;;;16.63;12.35;;;;;;;;;;5087396;28;20027;-66
2023/04/19 01:26:38;;;;;;;14.57;11.35;;;;;;;;;;5080231;28;20024;-65
2023/04/19 01:29:03;;;;;;;13.95;11.38;;;;;;;;;;5082471;28;20099;-66
2023/04/19 01:31:28;;;;;;;13.65;11.07;;;;;;;;;;5085193;28;20020;-65
2023/04/19 01:33:53;;;;;;;14.77;11.23;;;;;;;;;;5087939;28;20056;-65
2023/04/19 01:36:19;;;;;;;17.13;12.10;;;;;;;;;;5074739;28;20028;-65
2023/04/19 01:38:46;;;;;;;14.07;11.27;;;;;;;;;;5061493;28;20062;-65
2023/04/19 01:41:11;;;;;;;14.32;11.45;;;;;;;;;;5084634;28;20036;-66
2023/04/19 01:43:37;;;;;;;13.88;11.65;;;;;;;;;;5088959;28;20073;-65
2023/04/19 01:46:02;;;;;;;17.20;11.60;;;;;;;;;;5091706;28;20414;-66
2023/04/19 01:48:27;;;;;;;16.13;12.15;;;;;;;;;;5085733;28;20157;-65
2023/04/19 01:50:53;;;;;;;14.38;11.73;;;;;;;;;;5089479;28;20054;-66
2023/04/19 01:53:18;;;;;;;15.45;12.48;;;;;;;;;;5078974;28;20542;-65
2023/04/19 01:55:43;;;;;;;18.77;12.05;;;;;;;;;;5078016;28;20613;-66
2023/04/19 01:58:08;;;;;;;16.23;11.55;;;;;;;;;;5086243;28;20032;-68
2023/04/19 02:00:34;;;;;;;17.00;13.65;;;;;;;;;;5087280;28;20024;-65
2023/04/19 02:02:59;;;;;;;18.50;12.18;;;;;;;;;;5080613;28;20063;-65
2023/04/19 02:05:24;;;;;;;13.88;12.02;;;;;;;;;;5087417;28;20093;-65
2023/04/19 02:07:50;;;;;;;15.15;12.30;;;;;;;;;;5081867;28;20126;-65
2023/04/19 02:10:15;;;;;;;16.98;11.95;;;;;;;;;;5084134;28;20097;-65
2023/04/19 02:12:40;;;;;;;16.50;13.10;;;;;;;;;;5083152;28;20020;-65
2023/04/19 02:15:06;;;;;;;17.13;13.00;;;;;;;;;;5079337;28;20366;-65
2023/04/19 02:17:31;;;;;;;16.05;12.63;;;;;;;;;;5083803;28;20032;-65
2023/04/19 02:19:56;;;;;;;14.18;12.52;;;;;;;;;;5081727;28;20367;-65
2023/04/19 02:22:22;;;;;;;17.20;12.30;;;;;;;;;;5082162;28;20036;-65
2023/04/19 02:24:48;;;;;;;15.70;12.50;;;;;;;;;;5087820;28;20031;-65
2023/04/19 02:27:13;;;;;;;17.48;13.05;;;;;;;;;;5080478;28;20025;-66
2023/04/19 02:29:39;;;;;;;18.75;12.80;;;;;;;;;;5086506;28;20085;-66
2023/04/19 02:32:05;;;;;;;17.38;12.50;;;;;;;;;;5087698;28;20035;-65
2023/04/19 02:34:31;;;;;;;16.52;12.27;;;;;;;;;;5085789;28;20024;-66
2023/04/19 02:36:56;;;;;;;16.58;14.25;;;;;;;;;;5080339;28;20072;-65
2023/04/19 02:39:21;;;;;;;22.15;12.57;;;;;;;;;;5082510;28;20162;-65
2023/04/19 02:41:47;;;;;;;15.88;12.45;;;;;;;;;;5086031;28;20032;-65
2023/04/19 02:44:12;;;;;;;18.10;13.55;;;;;;;;;;5086793;28;20024;-65
2023/04/19 02:46:37;;;;;;;15.52;12.98;;;;;;;;;;5089542;28;20432;-65
2023/04/19 02:49:03;;;;;;;19.60;14.02;;;;;;;;;;5086893;28;20092;-65
2023/04/19 02:51:28;;;;;;;18.65;13.80;;;;;;;;;;5086410;28;20024;-65
2023/04/19 02:53:53;;;;;;;20.33;13.95;;;;;;;;;;5084003;28;20119;-65
2023/04/19 02:56:18;;;;;;;15.05;13.38;;;;;;;;;;5083101;28;20410;-65
2023/04/19 02:58:44;;;;;;;19.98;14.40;;;;;;;;;;5082049;28;20363;-65
2023/04/19 03:01:09;;;;;;;17.67;14.13;;;;;;;;;;5089374;28;20036;-65
2023/04/19 03:03:35;;;;;;;22.00;15.20;;;;;;;;;;5082783;28;20359;-66
2023/04/19 03:06:01;;;;;;;19.00;14.02;;;;;;;;;;5088497;28;20024;-65
2023/04/19 03:08:26;;;;;;;18.23;15.27;;;;;;;;;;5086079;28;20029;-66
2023/04/19 03:10:51;;;;;;;20.42;15.02;;;;;;;;;;5085704;28;20040;-66
2023/04/19 03:13:16;;;;;;;20.13;14.80;;;;;;;;;;5088189;28;20107;-65
2023/04/19 03:15:42;;;;;;;19.13;15.50;;;;;;;;;;5087427;28;20099;-65
2023/04/19 03:18:07;;;;;;;22.20;15.85;;;;;;;;;;5083381;28;20017;-65
2023/04/19 03:20:33;;;;;;;24.05;15.45;;;;;;;;;;5077387;28;20103;-65
2023/04/19 03:22:58;;;;;;;23.45;15.38;;;;;;;;;;5081581;28;20095;-66
2023/04/19 03:25:23;;;;;;;21.90;15.23;;;;;;;;;;5086686;28;20039;-65
2023/04/19 03:27:50;;;;;;;22.92;15.80;;;;;;;;;;5084358;28;20025;-65
2023/04/19 03:30:16;;;;;;;20.13;16.00;;;;;;;;;;5083264;28;20407;-65
2023/04/19 03:32:42;;;;;;;18.42;15.02;;;;;;;;;;5083126;28;20129;-65
2023/04/19 03:35:07;;;;;;;19.83;17.17;;;;;;;;;;5078089;28;20474;-66
2023/04/19 03:37:33;;;;;;;24.02;16.52;;;;;;;;;;5086451;28;20032;-66
2023/04/19 03:39:58;;;;;;;24.77;16.67;;;;;;;;;;5089392;28;20028;-66
2023/04/19 03:42:23;;;;;;;21.08;17.15;;;;;;;;;;5087916;28;20028;-66
2023/04/19 03:44:48;;;;;;;22.52;16.60;;;;;;;;;;5091509;28;20024;-66
2023/04/19 03:47:14;;;;;;;25.15;17.90;;;;;;;;;;5092842;28;20036;-66
2023/04/19 03:49:39;;;;;;;20.70;17.08;;;;;;;;;;5088121;28;20424;-66
2023/04/19 03:52:05;;;;;;;22.45;18.42;;;;;;;;;;5088122;28;20023;-68
2023/04/19 03:54:30;;;;;;;25.45;19.73;;;;;;;;;;5079774;28;20032;-65
2023/04/19 03:56:56;;;;;;;23.55;18.33;;;;;;;;;;5080515;28;20036;-65
2023/04/19 03:59:21;;;;;;;25.13;17.63;;;;;;;;;;5085855;28;20025;-66
2023/04/19 04:01:46;;;;;;;28.38;19.48;;;;;;;;;;5082609;28;20426;-65
2023/04/19 04:04:11;;;;;;;25.23;19.50;;;;;;;;;;5087662;28;20456;-66
2023/04/19 04:06:37;;;;;;;25.95;19.38;;;;;;;;;;5092396;28;20111;-68
2023/04/19 04:09:02;;;;;;;24.42;19.10;;;;;;;;;;5086660;28;20028;-65
2023/04/19 04:11:28;;;;;;;26.70;19.50;;;;;;;;;;5089602;28;20426;-66
2023/04/19 04:13:54;;;;;;;24.30;19.20;;;;;;;;;;5090038;28;20027;-66
2023/04/19 04:16:20;;;;;;;27.38;19.27;;;;;;;;;;5079784;28;20513;-66
2023/04/19 04:18:45;;;;;;;25.33;19.15;;;;;;;;;;5082781;28;20020;-66
2023/04/19 04:21:10;;;;;;;22.45;19.20;;;;;;;;;;5086167;28;20447;-66
2023/04/19 04:23:36;;;;;;;23.30;18.33;;;;;;;;;;5085802;28;20098;-67
2023/04/19 04:26:03;;;;;;;26.98;20.33;;;;;;;;;;5079607;28;20748;-65
2023/04/19 04:28:29;;;;;;;23.98;17.77;;;;;;;;;;5086779;28;20054;-65
2023/04/19 04:30:59;;;;;;;24.55;18.55;;;;;;;;;;5091197;28;20371;-65
2023/04/19 04:33:25;;;;;;;27.45;19.08;;;;;;;;;;5090376;28;20035;-66
2023/04/19 04:35:50;;;;;;;23.23;16.90;;;;;;;;;;5084032;28;20124;-66
2023/04/19 04:38:16;;;;;;;23.05;18.52;;;;;;;;;;5085664;28;20110;-65
2023/04/19 04:40:41;;;;;;;22.15;17.35;;;;;;;;;;5087341;28;20091;-66
2023/04/19 04:43:06;;;;;;;22.40;18.45;;;;;;;;;;5087979;28;20032;-66
2023/04/19 04:45:32;;;;;;;22.45;18.00;;;;;;;;;;5091320;28;20031;-66
2023/04/19 04:47:57;;;;;;;23.50;16.73;;;;;;;;;;5088674;28;20100;-66
2023/04/19 04:50:23;;;;;;;25.92;17.63;;;;;;;;;;5084692;28;20032;-65
2023/04/19 04:52:48;;;;;;;20.80;16.55;;;;;;;;;;5086239;28;20094;-66
2023/04/19 04:55:13;;;;;;;23.60;17.35;;;;;;;;;;5082310;28;20020;-65
2023/04/19 04:57:39;;;;;;;19.58;16.90;;;;;;;;;;5085119;28;20101;-66
2023/04/19 05:00:05;;;;;;;21.88;17.38;;;;;;;;;;5083194;28;20425;-65
2023/04/19 05:02:31;;;;;;;17.60;14.50;;;;;;;;;;5085237;28;20543;-65
2023/04/19 05:04:56;;;;;;;19.55;16.23;;;;;;;;;;5090014;28;20024;-65
2023/04/19 05:07:21;;;;;;;19.52;14.77;;;;;;;;;;5089101;28;20024;-65
2023/04/19 05:09:46;;;;;;;25.17;16.67;;;;;;;;;;5086518;28;20027;-66
2023/04/19 05:12:12;;;;;;;27.05;16.10;;;;;;;;;;5087841;28;20062;-66
2023/04/19 05:14:37;;;;;;;21.30;15.80;;;;;;;;;;5084767;28;20074;-67
2023/04/19 05:17:02;;;;;;;21.35;14.82;;;;;;;;;;5067907;28;20044;-65
2023/04/19 05:19:27;;;;;;;20.70;16.48;;;;;;;;;;5083191;28;20032;-65
2023/04/19 05:21:53;;;;;;;21.27;15.32;;;;;;;;;;5085665;28;20027;-65
2023/04/19 05:24:18;;;;;;;21.55;15.57;;;;;;;;;;5083809;28;20174;-65
2023/04/19 05:26:43;;;;;;;18.50;14.73;;;;;;;;;;5083543;28;20032;-65
2023/04/19 05:29:08;;;;;;;18.95;15.70;;;;;;;;;;5077772;28;20020;-66
2023/04/19 05:31:34;;;;;;;24.02;15.30;;;;;;;;;;5091960;28;20024;-66
2023/04/19 05:33:59;;;;;;;18.77;14.27;;;;;;;;;;5081941;28;20034;-66
2023/04/19 05:36:25;;;;;;;23.98;16.13;;;;;;;;;;5088172;28;20032;-66
2023/04/19 05:38:50;;;;;;;19.85;14.90;;;;;;;;;;5083430;28;20020;-66
2023/04/19 05:41:16;;;;;;;19.80;15.65;;;;;;;;;;5081608;28;20802;-66
2023/04/19 05:43:41;;;;;;;21.10;15.15;;;;;;;;;;5086584;28;20020;-66
2023/04/19 05:46:06;;;;;;;18.92;15.52;;;;;;;;;;5090339;28;20442;-66
2023/04/19 05:48:32;;;;;;;18.38;14.57;;;;;;;;;;5087402;28;20024;-66
2023/04/19 05:50:58;;;;;;;17.60;14.00;;;;;;;;;;5089463;28;20032;-66
2023/04/19 05:53:24;;;;;;;17.33;13.35;;;;;;;;;;5086337;28;20437;-65
2023/04/19 05:55:50;;;;;;;16.73;13.43;;;;;;;;;;5077720;28;20036;-66
2023/04/19 05:58:16;;;;;;;18.67;14.30;;;;;;;;;;5087319;28;20107;-64
2023/04/19 06:00:41;;;;;;;20.80;13.63;;;;;;;;;;5086067;28;20522;-68
2023/04/19 06:03:06;;;;;;;15.00;11.95;;;;;;;;;;5084915;28;20081;-66
2023/04/19 06:05:32;;;;;;;20.10;12.75;;;;;;;;;;5089370;28;20497;-65
2023/04/19 06:07:58;;;;;;;14.43;11.88;;;;;;;;;;5084952;28;20125;-66
2023/04/19 06:10:23;;;;;;;15.88;12.40;;;;;;;;;;5087646;28;20071;-66
2023/04/19 06:12:48;;;;;;;17.45;12.60;;;;;;;;;;5082575;28;20029;-66
2023/04/19 06:15:13;;;;;;;15.85;13.00;;;;;;;;;;5079051;28;20035;-67
2023/04/19 06:17:39;;;;;;;16.42;12.70;;;;;;;;;;5076462;28;20032;-66
2023/04/19 06:20:07;;;;;;;17.75;11.95;;;;;;;;;;5081709;28;20061;-65
2023/04/19 06:22:32;;;;;;;16.08;12.23;;;;;;;;;;5076507;28;20115;-65
2023/04/19 06:24:57;;;;;;;17.27;12.45;;;;;;;;;;5083656;28;20126;-66
2023/04/19 06:27:22;;;;;;;18.73;13.00;;;;;;;;;;5084240;28;20129;-66
2023/04/19 06:29:48;;;;;;;20.17;13.52;;;;;;;;;;5083348;28;20024;-66
2023/04/19 06:32:13;;;;;;;14.38;11.57;;;;;;;;;;5085482;28;20058;-66
2023/04/19 06:34:38;;;;;;;14.55;11.45;;;;;;;;;;5082761;28;20043;-66
2023/04/19 06:37:03;;;;;;;15.30;11.30;;;;;;;;;;5087404;28;20054;-65
2023/04/19 06:39:29;;;;;;;15.10;10.50;;;;;;;;;;5074496;28;20035;-65
2023/04/19 06:41:54;;;;;;;15.25;10.52;;;;;;;;;;5086934;28;20031;-65
2023/04/19 06:44:19;;;;;;;14.13;10.60;;;;;;;;;;5076925;28;20029;-66
2023/04/19 06:46:45;;;;;;;13.25;10.45;;;;;;;;;;5084730;28;20111;-66
2023/04/19 06:49:10;;;;;;;10.95;9.55;;;;;;;;;;5079993;28;20032;-66
2023/04/19 06:51:36;;;;;;;15.50;11.18;;;;;;;;;;5080713;28;20032;-64
2023/04/19 06:54:01;;;;;;;13.60;10.48;;;;;;;;;;5064302;28;20028;-65
2023/04/19 06:56:39;;;;;;;14.60;9.73;;;;;;;;;;5069808;28;20028;-65
2023/04/19 06:59:05;;;;;;;13.80;8.98;;;;;;;;;;5075597;28;20078;-65
2023/04/19 07:01:30;;;;;;;11.45;8.80;;;;;;;;;;5066260;28;20021;-65
2023/04/19 07:03:55;;;;;;;15.65;7.78;;;;;;;;;;5050125;28;20969;-64
2023/04/19 07:06:20;;;;;;;9.50;7.90;;;;;;;;;;5043942;28;20063;-65
2023/04/19 07:08:46;;;;;;;11.68;7.72;;;;;;;;;;5037555;28;20035;-65
2023/04/19 07:11:11;;;;;;;13.57;6.80;;;;;;;;;;5035455;28;20055;-65
2023/04/19 07:13:36;;;;;;;9.45;6.88;;;;;;;;;;5040160;28;20028;-65
2023/04/19 07:16:06;;;;;;;10.90;7.53;;;;;;;;;;5043464;28;20058;-65
2023/04/19 07:18:31;;;;;;;8.05;6.57;;;;;;;;;;5042558;28;20050;-65
2023/04/19 07:20:56;;;;;;;8.10;6.78;;;;;;;;;;5038437;28;20134;-65
2023/04/19 07:23:22;;;;;;;9.40;6.70;;;;;;;;;;5033983;28;20024;-65
2023/04/19 07:25:47;;;;;;;8.77;6.93;;;;;;;;;;5039835;28;20081;-65
2023/04/19 07:28:12;;;;;;;10.25;6.85;;;;;;;;;;5042565;28;20082;-65
2023/04/19 07:30:38;;;;;;;8.70;6.55;;;;;;;;;;5041305;28;20019;-65
2023/04/19 07:33:03;;;;;;;9.32;6.70;;;;;;;;;;5041624;28;20070;-66
2023/04/19 07:35:29;;;;;;;10.50;6.82;;;;;;;;;;5054100;28;20101;-65
2023/04/19 07:37:54;;;;;;;9.75;5.70;;;;;;;;;;5074094;28;20016;-64
2023/04/19 07:40:19;;;;;;;8.82;6.38;;;;;;;;;;5035662;28;20029;-65
2023/04/19 07:42:45;;;;;;;8.77;5.97;;;;;;;;;;5044480;28;20707;-64
2023/04/19 07:45:10;;;;;;;8.63;5.88;;;;;;;;;;5056239;28;20034;-64
2023/04/19 07:47:35;;;;;;;13.88;7.15;;;;;;;;;;5033191;28;20963;-65
2023/04/19 07:50:01;;;;;;;7.65;5.93;;;;;;;;;;5046682;28;20751;-65
2023/04/19 07:52:26;;;;;;;9.90;6.28;;;;;;;;;;5038954;28;20052;-65
2023/04/19 07:54:51;;;;;;;7.40;6.35;;;;;;;;;;5043373;28;20434;-65
2023/04/19 07:57:16;;;;;;;8.23;6.18;;;;;;;;;;5052719;28;20024;-64
2023/04/19 07:59:42;;;;;;;10.50;6.40;;;;;;;;;;5080322;28;20155;-65
2023/04/19 08:02:07;;;;;;;8.10;5.53;;;;;;;;;;5045510;28;20031;-65
2023/04/19 08:04:32;;;;;;;17.85;6.43;;;;;;;;;;5043813;28;20127;-65
2023/04/19 08:06:58;;;;;;;8.52;5.90;;;;;;;;;;5045120;28;20016;-65
2023/04/19 08:09:23;;;;;;;8.02;5.55;;;;;;;;;;5045703;28;20020;-65
2023/04/19 08:11:48;;;;;;;9.80;5.90;;;;;;;;;;5066042;28;20446;-65
2023/04/19 08:14:14;;;;;;;12.82;6.80;;;;;;;;;;5080019;28;20031;-66
2023/04/19 08:16:39;;;;;;;8.38;6.20;;;;;;;;;;5035353;28;20854;-65
2023/04/19 08:19:05;;;;;;;9.98;6.57;;;;;;;;;;5038017;28;20020;-65
2023/04/19 08:21:30;;;;;;;12.50;6.55;;;;;;;;;;5041828;28;20131;-65
2023/04/19 08:23:55;;;;;;;10.13;6.18;;;;;;;;;;5045360;28;20029;-65
2023/04/19 08:26:21;;;;;;;15.55;5.78;;;;;;;;;;5041364;28;20032;-65
2023/04/19 08:28:48;;;;;;;8.13;5.82;;;;;;;;;;5043243;28;20031;-65
2023/04/19 08:31:14;;;;;;;8.15;5.55;;;;;;;;;;5043704;28;20244;-65
2023/04/19 08:33:39;;;;;;;12.00;5.90;;;;;;;;;;5035527;28;20021;-66
2023/04/19 08:36:04;;;;;;;9.27;5.82;;;;;;;;;;5040366;28;20020;-65
2023/04/19 08:38:30;;;;;;;9.07;6.00;;;;;;;;;;5039430;28;20117;-65
2023/04/19 08:40:55;;;;;;;9.43;6.22;;;;;;;;;;5066911;28;20020;-65
2023/04/19 08:43:20;;;;;;;8.40;5.95;;;;;;;;;;5076322;28;20021;-65
2023/04/19 08:45:49;;;;;;;9.20;6.00;;;;;;;;;;5074388;28;21007;-65
2023/04/19 08:48:15;;;;;;;7.50;6.32;;;;;;;;;;5046940;28;20028;-65
2023/04/19 08:50:40;;;;;;;12.43;6.55;;;;;;;;;;5061675;28;20410;-65
2023/04/19 08:53:09;;;;;;;6.97;6.22;;;;;;;;;;5074524;28;20024;-65
2023/04/19 08:55:36;;;;;;;8.82;5.78;;;;;;;;;;5069411;28;20077;-65
2023/04/19 08:58:02;;;;;;;7.20;5.32;;;;;;;;;;5037539;28;20028;-66
2023/04/19 09:00:27;;;;;;;8.65;5.75;;;;;;;;;;5061731;28;20020;-65
2023/04/19 09:02:57;;;;;;;8.65;5.65;;;;;;;;;;5049986;28;20012;-65
2023/04/19 09:05:22;;;;;;;9.63;6.63;;;;;;;;;;5034667;28;20032;-65
2023/04/19 09:07:48;;;;;;;6.85;5.45;;;;;;;;;;5032493;28;20132;-65
2023/04/19 09:10:14;;;;;;;10.18;5.85;;;;;;;;;;5044069;28;20087;-65
2023/04/19 09:12:40;;;;;;;8.30;5.90;;;;;;;;;;5037930;28;20496;-65
2023/04/19 09:15:08;;;;;;;8.85;5.65;;;;;;;;;;5036664;28;20021;-65
2023/04/19 09:17:37;;;;;;;10.68;5.45;;;;;;;;;;5031877;28;20202;-65
2023/04/19 09:20:03;;;;;;;15.30;6.22;;;;;;;;;;5037316;28;20062;-65
2023/04/19 09:22:29;;;;;;;8.85;5.20;;;;;;;;;;5032243;28;20991;-65
2023/04/19 09:24:54;;;;;;;11.43;6.07;;;;;;;;;;5035686;28;20028;-65
2023/04/19 09:27:27;;;;;;;10.05;5.68;;;;;;;;;;5032134;28;20937;-66
2023/04/19 09:29:56;;;;;;;9.85;5.15;;;;;;;;;;5037018;28;20020;-65
2023/04/19 09:32:21;;;;;;;9.07;6.00;;;;;;;;;;5044293;28;20016;-64
2023/04/19 09:34:54;;;;;;;6.50;4.70;;;;;;;;;;5047267;28;20022;-65
2023/04/19 09:37:20;;;;;;;9.48;5.18;;;;;;;;;;5035611;28;20031;-65
2023/04/19 09:39:45;;;;;;;7.60;5.07;;;;;;;;;;5044510;28;20790;-65
2023/04/19 09:42:11;;;;;;;7.55;4.75;;;;;;;;;;5037561;28;20922;-65
2023/04/19 09:44:36;;;;;;;9.30;4.65;;;;;;;;;;5051157;28;20939;-65
2023/04/19 09:47:01;;;;;;;11.82;4.55;;;;;;;;;;5052661;28;20036;-65
2023/04/19 09:49:27;;;;;;;6.88;5.07;;;;;;;;;;5060831;28;20476;-65
2023/04/19 09:52:00;;;;;;;7.90;4.80;;;;;;;;;;5127611;27;20192;-65
2023/04/19 09:54:31;;;;;;;5.85;3.50;;;;;;;;;;5126461;28;20464;-65
2023/04/19 09:56:56;;;;;;;7.35;4.47;;;;;;;;;;5127778;28;20115;-65
2023/04/19 09:59:21;;;;;;;9.98;4.85;;;;;;;;;;5128179;28;20053;-64
2023/04/19 10:01:49;;;;;;;7.72;4.85;;;;;;;;;;5128115;28;20168;-65
2023/04/19 10:04:21;;;;;;;8.30;4.85;;;;;;;;;;5121451;28;20019;-65
2023/04/19 10:06:46;;;;;;;7.05;4.38;;;;;;;;;;5094588;28;20027;-65
2023/04/19 10:09:12;;;;;;;11.20;3.95;;;;;;;;;;5070956;28;20286;-65
2023/04/19 10:11:38;;;;;;;10.95;4.82;;;;;;;;;;5083260;28;20024;-65
2023/04/19 10:14:07;;;;;;;6.90;4.13;;;;;;;;;;5084288;28;20802;-65
2023/04/19 10:16:33;;;;;;;6.25;4.00;;;;;;;;;;5080563;27;20031;-64
2023/04/19 10:18:59;;;;;;;6.88;3.72;;;;;;;;;;5083102;28;20051;-65
2023/04/19 10:21:26;;;;;;;5.13;3.72;;;;;;;;;;5082008;27;20228;-65
2023/04/19 10:23:52;;;;;;;9.70;4.05;;;;;;;;;;5076603;28;20027;-65
2023/04/19 10:26:17;;;;;;;5.47;3.65;;;;;;;;;;5077101;28;20035;-64
2023/04/19 10:28:42;;;;;;;12.55;3.80;;;;;;;;;;5096015;28;20073;-64
2023/04/19 10:31:10;;;;;;;6.45;3.63;;;;;;;;;;5084020;27;20066;-64
2023/04/19 10:33:36;;;;;;;5.90;3.60;;;;;;;;;;5077559;28;20027;-64
2023/04/19 10:36:01;;;;;;;6.90;3.53;;;;;;;;;;5079272;27;20020;-64
2023/04/19 10:38:36;;;;;;;9.05;3.13;;;;;;;;;;5081291;27;20023;-63
2023/04/19 10:41:02;;;;;;;;;;;;;;;;;;5081780;28;20034;-64
2023/04/19 10:43:34;;;;;;;5.50;2.72;;;;;;;;;;5081579;27;19912;-64
2023/04/19 10:46:07;;;;;;;9.75;3.10;;;;;;;;;;5082813;27;20055;-64
2023/04/19 10:48:34;;;;;;;6.40;3.58;;;;;;;;;;5062956;28;20023;-64
2023/04/19 10:51:06;;;;;;;4.30;2.70;;;;;;;;;;5081766;28;20084;-65
2023/04/19 10:53:43;;;;;;;7.93;3.28;;;;;;;;;;5080855;27;20023;-65
2023/04/19 10:56:08;;;;;;;7.05;3.58;;;;;;;;;;5078123;28;20036;-65
2023/04/19 10:58:54;;;;;;;6.13;3.58;;;;;;;;;;5081151;28;20023;-64
2023/04/19 11:01:44;;;;;;;6.45;3.28;;;;;;;;;;5056868;28;20976;-65
2023/04/19 11:04:12;;;;;;;5.75;2.90;;;;;;;;;;5067135;28;20023;-65
2023/04/19 11:06:50;;;;;;;7.30;2.42;;;;;;;;;;5065255;28;20823;-65
2023/04/19 11:09:21;;;;;;;4.97;2.50;;;;;;;;;;5065470;28;20868;-65
2023/04/19 11:11:46;;;;;;;9.25;2.50;;;;;;;;;;5060144;28;20146;-64
2023/04/19 11:14:12;;;;;;;5.65;2.35;;;;;;;;;;5067155;28;20895;-65
2023/04/19 11:16:37;;;;;;;4.68;2.78;;;;;;;;;;5064728;28;20135;-65
2023/04/19 11:19:02;;;;;;;6.80;2.60;;;;;;;;;;5063670;28;20126;-64
2023/04/19 11:21:28;;;;;;;4.82;2.97;;;;;;;;;;5063704;28;20050;-65
2023/04/19 11:24:07;;;;;;;7.30;2.80;;;;;;;;;;5072749;28;20036;-65
2023/04/19 11:26:32;;;;;;;5.15;2.22;;;;;;;;;;5110324;28;20024;-65
2023/04/19 11:28:57;;;;;;;3.72;2.03;;;;;;;;;;5078421;28;20533;-65
2023/04/19 11:31:23;;;;;;;6.13;2.63;;;;;;;;;;5066315;28;20032;-65
2023/04/19 11:33:48;;;;;;;6.28;2.03;;;;;;;;;;5059563;28;21112;-65
2023/04/19 11:36:13;;;;;;;8.00;2.63;;;;;;;;;;5068565;28;20873;-65
2023/04/19 11:38:39;;;;;;;5.47;2.38;;;;;;;;;;5058917;28;20031;-65
2023/04/19 11:41:04;;;;;;;5.25;2.67;;;;;;;;;;5064138;28;20023;-65
2023/04/19 11:43:34;;;;;;;8.18;2.22;;;;;;;;;;5066935;28;20038;-65
2023/04/19 11:46:06;;;;;;;6.05;3.15;;;;;;;;;;5066425;28;20027;-65
2023/04/19 11:48:31;;;;;;;6.72;2.22;;;;;;;;;;5064616;28;20080;-65
2023/04/19 11:50:58;;;;;;;4.50;2.40;;;;;;;;;;5065380;28;20039;-66
2023/04/19 11:53:24;;;;;;;7.38;2.55;;;;;;;;;;5064402;28;20027;-66
2023/04/19 11:55:50;;;;;;;4.18;2.30;;;;;;;;;;5068927;28;20024;-66
2023/04/19 11:58:24;;;;;;;6.13;2.63;;;;;;;;;;5062317;28;20028;-64
2023/04/19 12:00:50;;;;;;;7.70;2.58;;;;;;;;;;5063784;28;21565;-66
2023/04/19 12:03:15;;;;;;;5.28;2.65;;;;;;;;;;5067824;28;20016;-65
2023/04/19 12:05:51;;;;;;;5.38;2.63;;;;;;;;;;5074652;28;20838;-65
2023/04/19 12:08:16;;;;;;;6.35;2.45;;;;;;;;;;5063180;28;20081;-65
2023/04/19 12:10:54;;;;;;;8.73;2.07;;;;;;;;;;5062547;28;20091;-66
2023/04/19 12:13:19;;;;;;;6.07;2.83;;;;;;;;;;5061079;28;20285;-66
2023/04/19 12:15:45;;;;;;;5.00;2.33;;;;;;;;;;5066590;28;20019;-65
2023/04/19 12:18:10;;;;;;;5.47;1.92;;;;;;;;;;5065827;28;20928;-65
2023/04/19 12:20:37;;;;;;;4.53;2.08;;;;;;;;;;5063845;28;20043;-65
2023/04/19 12:23:02;;;;;;;7.47;2.45;;;;;;;;;;5072190;28;20032;-65
2023/04/19 12:25:32;;;;;;;8.25;2.30;;;;;;;;;;5068649;28;20051;-62
2023/04/19 12:27:58;;;;;;;4.55;2.05;;;;;;;;;;5068965;28;20077;-63
2023/04/19 12:30:23;;;;;;;9.38;2.10;;;;;;;;;;5062529;28;20028;-62
2023/04/19 12:32:50;;;;;;;7.93;2.10;;;;;;;;;;5059443;28;20864;-62
2023/04/19 12:35:15;;;;;;;9.55;2.38;;;;;;;;;;5061853;28;20273;-63
2023/04/19 12:37:41;;;;;;;5.10;2.47;;;;;;;;;;5063045;28;20804;-62
2023/04/19 12:40:06;;;;;;;5.25;2.30;;;;;;;;;;5063945;28;20020;-61
2023/04/19 12:42:31;;;;;;;5.47;2.65;;;;;;;;;;5071285;28;20034;-61
2023/04/19 12:44:57;;;;;;;4.73;2.00;;;;;;;;;;5063974;28;20830;-61
2023/04/19 12:47:22;;;;;;;5.03;2.50;;;;;;;;;;5062897;28;20277;-64
2023/04/19 12:49:47;;;;;;;7.15;2.80;;;;;;;;;;5064318;28;20313;-63
2023/04/19 12:52:13;;;;;;;4.53;2.50;;;;;;;;;;5063746;28;20041;-62
2023/04/19 12:54:38;;;;;;;7.95;2.33;;;;;;;;;;5065139;28;20269;-62
2023/04/19 12:57:04;;;;;;;4.37;2.40;;;;;;;;;;5069523;28;20024;-65
2023/04/19 12:59:29;;;;;;;3.88;2.20;;;;;;;;;;5080540;28;21213;-67
2023/04/19 13:01:55;;;;;;;7.25;2.40;;;;;;;;;;5108062;28;20016;-67
2023/04/19 13:04:20;;;;;;;4.15;1.98;;;;;;;;;;5087101;28;20031;-66
2023/04/19 13:06:45;;;;;;;3.57;1.83;;;;;;;;;;5096164;28;20818;-63
2023/04/19 13:09:10;;;;;;;4.97;2.70;;;;;;;;;;5067290;28;20285;-64
2023/04/19 13:11:36;;;;;;;4.07;2.33;;;;;;;;;;5094263;28;21211;-64
2023/04/19 13:14:01;;;;;;;4.73;2.03;;;;;;;;;;5067163;28;20486;-63
2023/04/19 13:16:26;;;;;;;6.78;2.28;;;;;;;;;;5065912;28;20372;-63
2023/04/19 13:18:53;;;;;;;15.60;2.95;;;;;;;;;;5064039;28;20031;-65
2023/04/19 13:21:18;;;;;;;6.05;2.15;;;;;;;;;;5063302;28;20060;-63
2023/04/19 13:23:44;;;;;;;5.53;2.83;;;;;;;;;;5071016;28;20027;-63
2023/04/19 13:26:09;;;;;;;8.10;3.22;;;;;;;;;;5076231;28;20304;-62
2023/04/19 13:28:35;;;;;;;5.18;2.38;;;;;;;;;;5079824;28;20790;-63
2023/04/19 13:31:01;;;;;;;8.13;2.35;;;;;;;;;;5071604;28;20028;-64
2023/04/19 13:33:26;;;;;;;9.18;2.53;;;;;;;;;;5073934;28;20134;-64
2023/04/19 13:35:51;;;;;;;5.53;2.30;;;;;;;;;;5073333;28;20035;-63
2023/04/19 13:38:17;;;;;;;4.85;2.00;;;;;;;;;;5073720;28;20023;-64
2023/04/19 13:40:43;;;;;;;6.23;2.90;;;;;;;;;;5073206;28;20977;-63
2023/04/19 13:43:09;;;;;;;4.85;2.20;;;;;;;;;;5074663;28;20305;-64
2023/04/19 13:45:34;;;;;;;10.00;2.30;;;;;;;;;;5070396;28;20472;-65
2023/04/19 13:47:59;;;;;;;4.70;2.75;;;;;;;;;;5078939;28;20028;-63
2023/04/19 13:50:25;;;;;;;4.60;2.53;;;;;;;;;;5067973;28;20031;-66
2023/04/19 13:52:50;;;;;;;6.63;2.40;;;;;;;;;;5090157;28;20031;-64
2023/04/19 13:55:15;;;;;;;11.20;2.55;;;;;;;;;;5110061;28;20027;-64
2023/04/19 13:57:41;;;;;;;10.38;3.13;;;;;;;;;;5109988;28;20508;-64
2023/04/19 14:00:07;;;;;;;6.55;2.50;;;;;;;;;;5109365;28;20031;-64
2023/04/19 14:02:32;;;;;;;5.35;2.65;;;;;;;;;;5103992;28;20065;-64
2023/04/19 14:04:58;;;;;;;3.97;2.25;;;;;;;;;;5109665;28;20027;-64
2023/04/19 14:07:23;;;;;;;6.43;2.28;;;;;;;;;;5109632;28;20023;-63
2023/04/19 14:09:49;;;;;;;3.58;2.15;;;;;;;;;;5065769;28;20119;-63
2023/04/19 14:12:14;;;;;;;4.63;2.53;;;;;;;;;;5063850;28;20031;-64
2023/04/19 14:14:39;;;;;;;4.75;2.58;;;;;;;;;;5109257;28;20386;-64
2023/04/19 14:17:04;;;;;;;12.67;3.23;;;;;;;;;;5109242;28;20118;-61
2023/04/19 14:19:30;;;;;;;4.45;2.28;;;;;;;;;;5109301;28;20640;-63
2023/04/19 14:21:55;;;;;;;5.87;3.07;;;;;;;;;;5106231;28;20035;-62